sensor_id;sensor_type;location;lat;lon;timestamp;P1;durP1;ratioP1;P2;durP2;ratioP2
9256;SDS011;4665;51.368;6.782;2024-01-30T00:03:20;4.40;;;4.00;;
9256;SDS011;4665;51.368;6.782;2024-01-30T00:05:56;5.13;;;4.63;;
9256;SDS011;4665;51.368;6.782;2024-01-30T00:08:22;4.93;;;4.43;;
9256;SDS011;4665;51.368;6.782;2024-01-30T00:10:54;4.83;;;4.13;;
9256;SDS011;4665;51.368;6.782;2024-01-30T00:13:19;7.80;;;4.80;;
9256;SDS011;4665;51.368;6.782;2024-01-30T00:18:58;6.10;;;4.23;;
9256;SDS011;4665;51.368;6.782;2024-01-30T00:21:23;6.53;;;4.87;;
9256;SDS011;4665;51.368;6.782;2024-01-30T00:23:56;6.07;;;4.40;;
9256;SDS011;4665;51.368;6.782;2024-01-30T00:26:22;7.53;;;4.43;;
9256;SDS011;4665;51.368;6.782;2024-01-30T00:31:50;5.53;;;4.50;;
9256;SDS011;4665;51.368;6.782;2024-01-30T00:34:15;4.33;;;3.90;;
9256;SDS011;4665;51.368;6.782;2024-01-30T00:36:45;5.37;;;4.47;;
9256;SDS011;4665;51.368;6.782;2024-01-30T00:39:10;5.77;;;4.70;;
9256;SDS011;4665;51.368;6.782;2024-01-30T00:41:52;4.80;;;4.30;;
9256;SDS011;4665;51.368;6.782;2024-01-30T00:44:17;4.90;;;3.83;;
9256;SDS011;4665;51.368;6.782;2024-01-30T00:46:43;4.90;;;4.20;;
9256;SDS011;4665;51.368;6.782;2024-01-30T00:49:08;5.57;;;4.30;;
9256;SDS011;4665;51.368;6.782;2024-01-30T00:51:33;5.20;;;4.53;;
9256;SDS011;4665;51.368;6.782;2024-01-30T00:53:59;4.53;;;4.10;;
9256;SDS011;4665;51.368;6.782;2024-01-30T00:56:25;5.17;;;4.60;;
9256;SDS011;4665;51.368;6.782;2024-01-30T00:58:50;5.17;;;4.00;;
9256;SDS011;4665;51.368;6.782;2024-01-30T01:13:00;7.43;;;4.87;;
9256;SDS011;4665;51.368;6.782;2024-01-30T01:15:26;5.17;;;4.57;;
9256;SDS011;4665;51.368;6.782;2024-01-30T01:17:58;9.57;;;5.03;;
9256;SDS011;4665;51.368;6.782;2024-01-30T01:20:23;5.07;;;4.30;;
9256;SDS011;4665;51.368;6.782;2024-01-30T01:25:41;6.00;;;5.17;;
9256;SDS011;4665;51.368;6.782;2024-01-30T01:30:58;6.13;;;4.80;;
9256;SDS011;4665;51.368;6.782;2024-01-30T01:36:24;5.83;;;5.00;;
9256;SDS011;4665;51.368;6.782;2024-01-30T01:38:51;4.90;;;4.40;;
9256;SDS011;4665;51.368;6.782;2024-01-30T01:41:16;7.53;;;4.83;;
9256;SDS011;4665;51.368;6.782;2024-01-30T01:43:42;7.47;;;4.83;;
9256;SDS011;4665;51.368;6.782;2024-01-30T01:46:07;6.37;;;4.67;;
9256;SDS011;4665;51.368;6.782;2024-01-30T01:48:34;7.33;;;5.13;;
9256;SDS011;4665;51.368;6.782;2024-01-30T01:50:59;5.60;;;4.43;;
9256;SDS011;4665;51.368;6.782;2024-01-30T01:53:33;7.23;;;4.27;;
9256;SDS011;4665;51.368;6.782;2024-01-30T01:55:58;6.40;;;5.00;;
9256;SDS011;4665;51.368;6.782;2024-01-30T01:58:24;4.40;;;4.03;;
9256;SDS011;4665;51.368;6.782;2024-01-30T02:06:28;5.93;;;4.87;;
9256;SDS011;4665;51.368;6.782;2024-01-30T02:11:58;6.03;;;4.50;;
9256;SDS011;4665;51.368;6.782;2024-01-30T02:17:28;4.70;;;4.10;;
9256;SDS011;4665;51.368;6.782;2024-01-30T02:19:54;5.47;;;4.77;;
9256;SDS011;4665;51.368;6.782;2024-01-30T02:22:28;5.50;;;4.27;;
9256;SDS011;4665;51.368;6.782;2024-01-30T02:24:54;4.73;;;4.27;;
9256;SDS011;4665;51.368;6.782;2024-01-30T02:30:22;6.63;;;4.43;;
9256;SDS011;4665;51.368;6.782;2024-01-30T02:35:44;5.23;;;4.33;;
9256;SDS011;4665;51.368;6.782;2024-01-30T02:40:54;5.67;;;4.90;;
9256;SDS011;4665;51.368;6.782;2024-01-30T02:43:33;6.03;;;4.53;;
9256;SDS011;4665;51.368;6.782;2024-01-30T02:45:59;6.23;;;4.70;;
9256;SDS011;4665;51.368;6.782;2024-01-30T02:48:26;4.80;;;4.30;;
9256;SDS011;4665;51.368;6.782;2024-01-30T02:50:51;6.50;;;5.23;;
9256;SDS011;4665;51.368;6.782;2024-01-30T02:53:17;6.17;;;4.67;;
9256;SDS011;4665;51.368;6.782;2024-01-30T02:58:13;8.30;;;4.43;;
9256;SDS011;4665;51.368;6.782;2024-01-30T03:00:47;4.63;;;4.20;;
9256;SDS011;4665;51.368;6.782;2024-01-30T03:03:13;4.80;;;4.40;;
9256;SDS011;4665;51.368;6.782;2024-01-30T03:05:38;6.77;;;4.73;;
9256;SDS011;4665;51.368;6.782;2024-01-30T03:13:53;6.50;;;4.33;;
9256;SDS011;4665;51.368;6.782;2024-01-30T03:16:18;5.80;;;4.50;;
9256;SDS011;4665;51.368;6.782;2024-01-30T03:18:58;6.03;;;4.23;;
9256;SDS011;4665;51.368;6.782;2024-01-30T03:21:23;4.90;;;4.40;;
9256;SDS011;4665;51.368;6.782;2024-01-30T03:24:03;5.87;;;4.90;;
9256;SDS011;4665;51.368;6.782;2024-01-30T03:26:28;6.23;;;4.23;;
9256;SDS011;4665;51.368;6.782;2024-01-30T03:31:41;6.30;;;4.30;;
9256;SDS011;4665;51.368;6.782;2024-01-30T03:34:07;4.60;;;4.03;;
9256;SDS011;4665;51.368;6.782;2024-01-30T03:36:33;4.60;;;4.10;;
9256;SDS011;4665;51.368;6.782;2024-01-30T03:38:59;5.07;;;4.53;;
9256;SDS011;4665;51.368;6.782;2024-01-30T03:41:24;6.57;;;4.90;;
9256;SDS011;4665;51.368;6.782;2024-01-30T03:43:58;6.17;;;4.47;;
9256;SDS011;4665;51.368;6.782;2024-01-30T03:46:23;5.77;;;4.63;;
9256;SDS011;4665;51.368;6.782;2024-01-30T03:48:49;4.10;;;3.77;;
9256;SDS011;4665;51.368;6.782;2024-01-30T03:54:17;5.87;;;4.20;;
9256;SDS011;4665;51.368;6.782;2024-01-30T03:56:45;6.70;;;4.40;;
9256;SDS011;4665;51.368;6.782;2024-01-30T03:59:10;4.60;;;4.20;;
9256;SDS011;4665;51.368;6.782;2024-01-30T04:01:35;5.90;;;4.47;;
9256;SDS011;4665;51.368;6.782;2024-01-30T04:04:02;4.57;;;4.17;;
9256;SDS011;4665;51.368;6.782;2024-01-30T04:06:27;5.43;;;3.93;;
9256;SDS011;4665;51.368;6.782;2024-01-30T04:14:30;4.13;;;3.77;;
9256;SDS011;4665;51.368;6.782;2024-01-30T04:23:18;5.20;;;4.17;;
9256;SDS011;4665;51.368;6.782;2024-01-30T04:25:43;8.97;;;4.90;;
9256;SDS011;4665;51.368;6.782;2024-01-30T04:31:01;6.60;;;4.27;;
9256;SDS011;4665;51.368;6.782;2024-01-30T04:33:26;4.80;;;4.10;;
9256;SDS011;4665;51.368;6.782;2024-01-30T04:36:04;4.23;;;3.83;;
9256;SDS011;4665;51.368;6.782;2024-01-30T04:38:29;5.00;;;3.83;;
9256;SDS011;4665;51.368;6.782;2024-01-30T04:43:57;5.23;;;4.40;;
9256;SDS011;4665;51.368;6.782;2024-01-30T04:55:24;5.07;;;4.03;;
9256;SDS011;4665;51.368;6.782;2024-01-30T04:57:55;6.40;;;4.50;;
9256;SDS011;4665;51.368;6.782;2024-01-30T05:00:21;5.53;;;4.40;;
9256;SDS011;4665;51.368;6.782;2024-01-30T05:02:46;6.50;;;4.60;;
9256;SDS011;4665;51.368;6.782;2024-01-30T05:08:11;6.20;;;4.33;;
9256;SDS011;4665;51.368;6.782;2024-01-30T05:10:36;5.00;;;3.90;;
9256;SDS011;4665;51.368;6.782;2024-01-30T05:16:01;4.87;;;3.93;;
9256;SDS011;4665;51.368;6.782;2024-01-30T05:18:26;5.13;;;4.33;;
9256;SDS011;4665;51.368;6.782;2024-01-30T05:23:29;7.43;;;4.53;;
9256;SDS011;4665;51.368;6.782;2024-01-30T05:26:01;4.63;;;4.10;;
9256;SDS011;4665;51.368;6.782;2024-01-30T05:28:27;6.57;;;4.60;;
9256;SDS011;4665;51.368;6.782;2024-01-30T05:30:52;4.40;;;4.00;;
9256;SDS011;4665;51.368;6.782;2024-01-30T05:33:22;6.77;;;4.00;;
9256;SDS011;4665;51.368;6.782;2024-01-30T05:35:47;5.03;;;4.20;;
9256;SDS011;4665;51.368;6.782;2024-01-30T05:38:15;4.50;;;3.80;;
9256;SDS011;4665;51.368;6.782;2024-01-30T05:40:41;4.57;;;4.07;;
9256;SDS011;4665;51.368;6.782;2024-01-30T05:45:54;6.30;;;4.23;;
9256;SDS011;4665;51.368;6.782;2024-01-30T05:48:20;6.80;;;4.30;;
9256;SDS011;4665;51.368;6.782;2024-01-30T05:53:30;6.53;;;3.97;;
9256;SDS011;4665;51.368;6.782;2024-01-30T05:55:55;4.70;;;4.20;;
9256;SDS011;4665;51.368;6.782;2024-01-30T05:58:33;5.50;;;4.40;;
9256;SDS011;4665;51.368;6.782;2024-01-30T06:00:59;6.63;;;4.50;;
9256;SDS011;4665;51.368;6.782;2024-01-30T06:03:24;4.90;;;3.97;;
9256;SDS011;4665;51.368;6.782;2024-01-30T06:05:50;5.23;;;4.20;;
9256;SDS011;4665;51.368;6.782;2024-01-30T06:08:15;6.50;;;3.87;;
9256;SDS011;4665;51.368;6.782;2024-01-30T06:10:46;4.57;;;4.07;;
9256;SDS011;4665;51.368;6.782;2024-01-30T06:13:12;6.07;;;3.80;;
9256;SDS011;4665;51.368;6.782;2024-01-30T06:15:38;6.33;;;4.10;;
9256;SDS011;4665;51.368;6.782;2024-01-30T06:18:03;5.03;;;4.00;;
9256;SDS011;4665;51.368;6.782;2024-01-30T06:20:30;6.07;;;4.00;;
9256;SDS011;4665;51.368;6.782;2024-01-30T06:22:55;5.67;;;4.10;;
9256;SDS011;4665;51.368;6.782;2024-01-30T06:25:20;5.13;;;4.47;;
9256;SDS011;4665;51.368;6.782;2024-01-30T06:27:47;5.60;;;4.03;;
9256;SDS011;4665;51.368;6.782;2024-01-30T06:30:12;5.33;;;4.43;;
9256;SDS011;4665;51.368;6.782;2024-01-30T06:32:37;5.27;;;4.10;;
9256;SDS011;4665;51.368;6.782;2024-01-30T06:38:05;4.57;;;4.13;;
9256;SDS011;4665;51.368;6.782;2024-01-30T06:40:30;6.10;;;4.03;;
9256;SDS011;4665;51.368;6.782;2024-01-30T06:45:49;4.17;;;3.47;;
9256;SDS011;4665;51.368;6.782;2024-01-30T06:48:19;4.20;;;3.83;;
9256;SDS011;4665;51.368;6.782;2024-01-30T06:50:44;7.13;;;4.53;;
9256;SDS011;4665;51.368;6.782;2024-01-30T06:53:10;4.37;;;3.97;;
9256;SDS011;4665;51.368;6.782;2024-01-30T06:55:49;3.83;;;3.43;;
9256;SDS011;4665;51.368;6.782;2024-01-30T06:58:14;6.23;;;4.37;;
9256;SDS011;4665;51.368;6.782;2024-01-30T07:00:39;6.63;;;4.47;;
9256;SDS011;4665;51.368;6.782;2024-01-30T07:03:12;5.50;;;4.40;;
9256;SDS011;4665;51.368;6.782;2024-01-30T07:05:37;4.93;;;4.40;;
9256;SDS011;4665;51.368;6.782;2024-01-30T07:08:03;4.80;;;4.30;;
9256;SDS011;4665;51.368;6.782;2024-01-30T07:13:32;4.87;;;4.47;;
9256;SDS011;4665;51.368;6.782;2024-01-30T07:15:59;5.57;;;4.67;;
9256;SDS011;4665;51.368;6.782;2024-01-30T07:21:11;5.43;;;4.00;;
9256;SDS011;4665;51.368;6.782;2024-01-30T07:29:26;5.30;;;4.67;;
9256;SDS011;4665;51.368;6.782;2024-01-30T07:31:52;4.63;;;4.07;;
9256;SDS011;4665;51.368;6.782;2024-01-30T07:37:20;5.50;;;4.13;;
9256;SDS011;4665;51.368;6.782;2024-01-30T07:39:45;4.67;;;4.20;;
9256;SDS011;4665;51.368;6.782;2024-01-30T07:45:13;7.13;;;4.40;;
9256;SDS011;4665;51.368;6.782;2024-01-30T07:47:39;5.73;;;4.23;;
9256;SDS011;4665;51.368;6.782;2024-01-30T07:52:58;5.60;;;4.03;;
9256;SDS011;4665;51.368;6.782;2024-01-30T07:55:31;6.07;;;4.23;;
9256;SDS011;4665;51.368;6.782;2024-01-30T07:57:57;5.47;;;4.43;;
9256;SDS011;4665;51.368;6.782;2024-01-30T08:00:24;4.90;;;4.30;;
9256;SDS011;4665;51.368;6.782;2024-01-30T08:02:50;4.43;;;4.03;;
9256;SDS011;4665;51.368;6.782;2024-01-30T08:05:15;4.53;;;4.13;;
9256;SDS011;4665;51.368;6.782;2024-01-30T08:07:58;6.00;;;4.20;;
9256;SDS011;4665;51.368;6.782;2024-01-30T08:10:23;5.03;;;3.60;;
9256;SDS011;4665;51.368;6.782;2024-01-30T08:13:03;4.80;;;4.07;;
9256;SDS011;4665;51.368;6.782;2024-01-30T08:15:28;4.13;;;3.63;;
9256;SDS011;4665;51.368;6.782;2024-01-30T08:18:00;4.70;;;4.27;;
9256;SDS011;4665;51.368;6.782;2024-01-30T08:20:26;5.03;;;4.53;;
9256;SDS011;4665;51.368;6.782;2024-01-30T08:26:00;4.27;;;3.87;;
9256;SDS011;4665;51.368;6.782;2024-01-30T08:28:25;7.00;;;4.27;;
9256;SDS011;4665;51.368;6.782;2024-01-30T08:30:56;5.67;;;4.43;;
9256;SDS011;4665;51.368;6.782;2024-01-30T08:33:21;4.67;;;4.00;;
9256;SDS011;4665;51.368;6.782;2024-01-30T08:35:47;5.73;;;4.23;;
9256;SDS011;4665;51.368;6.782;2024-01-30T08:41:14;4.40;;;3.77;;
9256;SDS011;4665;51.368;6.782;2024-01-30T08:49:19;5.27;;;4.50;;
9256;SDS011;4665;51.368;6.782;2024-01-30T08:54:13;5.47;;;4.30;;
9256;SDS011;4665;51.368;6.782;2024-01-30T09:02:49;4.57;;;4.17;;
9256;SDS011;4665;51.368;6.782;2024-01-30T09:05:14;5.10;;;4.37;;
9256;SDS011;4665;51.368;6.782;2024-01-30T09:07:55;4.53;;;4.10;;
9256;SDS011;4665;51.368;6.782;2024-01-30T09:10:20;5.13;;;4.40;;
9256;SDS011;4665;51.368;6.782;2024-01-30T09:12:59;4.97;;;4.30;;
9256;SDS011;4665;51.368;6.782;2024-01-30T09:15:25;5.20;;;4.40;;
9256;SDS011;4665;51.368;6.782;2024-01-30T09:23:39;8.43;;;4.90;;
9256;SDS011;4665;51.368;6.782;2024-01-30T09:26:19;5.40;;;4.60;;
9256;SDS011;4665;51.368;6.782;2024-01-30T09:28:44;4.70;;;3.97;;
9256;SDS011;4665;51.368;6.782;2024-01-30T09:31:10;5.17;;;4.20;;
9256;SDS011;4665;51.368;6.782;2024-01-30T09:33:35;7.23;;;4.53;;
9256;SDS011;4665;51.368;6.782;2024-01-30T09:36:07;7.03;;;4.83;;
9256;SDS011;4665;51.368;6.782;2024-01-30T09:38:32;5.00;;;4.50;;
9256;SDS011;4665;51.368;6.782;2024-01-30T09:52:59;5.57;;;4.60;;
9256;SDS011;4665;51.368;6.782;2024-01-30T09:55:25;6.87;;;5.20;;
9256;SDS011;4665;51.368;6.782;2024-01-30T10:00:41;5.10;;;4.23;;
9256;SDS011;4665;51.368;6.782;2024-01-30T10:06:15;6.90;;;5.20;;
9256;SDS011;4665;51.368;6.782;2024-01-30T10:08:44;5.10;;;4.60;;
9256;SDS011;4665;51.368;6.782;2024-01-30T10:11:09;6.70;;;5.43;;
9256;SDS011;4665;51.368;6.782;2024-01-30T10:13:35;5.37;;;4.87;;
9256;SDS011;4665;51.368;6.782;2024-01-30T10:16:00;4.50;;;4.10;;
9256;SDS011;4665;51.368;6.782;2024-01-30T10:21:29;8.03;;;4.77;;
9256;SDS011;4665;51.368;6.782;2024-01-30T10:23:54;5.63;;;4.77;;
9256;SDS011;4665;51.368;6.782;2024-01-30T10:26:23;7.00;;;4.40;;
9256;SDS011;4665;51.368;6.782;2024-01-30T10:28:48;7.07;;;5.47;;
9256;SDS011;4665;51.368;6.782;2024-01-30T10:33:49;6.10;;;5.10;;
9256;SDS011;4665;51.368;6.782;2024-01-30T10:36:20;7.90;;;5.17;;
9256;SDS011;4665;51.368;6.782;2024-01-30T10:38:48;7.53;;;5.20;;
9256;SDS011;4665;51.368;6.782;2024-01-30T10:41:16;7.57;;;4.93;;
9256;SDS011;4665;51.368;6.782;2024-01-30T10:43:42;5.63;;;4.77;;
9256;SDS011;4665;51.368;6.782;2024-01-30T10:46:19;5.57;;;5.07;;
9256;SDS011;4665;51.368;6.782;2024-01-30T10:48:49;8.73;;;4.87;;
9256;SDS011;4665;51.368;6.782;2024-01-30T10:51:34;6.20;;;4.90;;
9256;SDS011;4665;51.368;6.782;2024-01-30T10:54:00;7.73;;;5.47;;
9256;SDS011;4665;51.368;6.782;2024-01-30T10:56:27;6.83;;;5.20;;
9256;SDS011;4665;51.368;6.782;2024-01-30T10:58:53;6.50;;;4.60;;
9256;SDS011;4665;51.368;6.782;2024-01-30T11:04:08;5.43;;;4.93;;
9256;SDS011;4665;51.368;6.782;2024-01-30T11:06:49;8.80;;;5.27;;
9256;SDS011;4665;51.368;6.782;2024-01-30T11:09:16;7.37;;;5.30;;
9256;SDS011;4665;51.368;6.782;2024-01-30T11:14:37;6.40;;;5.13;;
9256;SDS011;4665;51.368;6.782;2024-01-30T11:23:14;6.70;;;5.03;;
9256;SDS011;4665;51.368;6.782;2024-01-30T11:25:39;9.97;;;5.13;;
9256;SDS011;4665;51.368;6.782;2024-01-30T11:28:16;5.87;;;4.97;;
9256;SDS011;4665;51.368;6.782;2024-01-30T11:30:41;8.50;;;5.50;;
9256;SDS011;4665;51.368;6.782;2024-01-30T11:33:26;5.80;;;5.13;;
9256;SDS011;4665;51.368;6.782;2024-01-30T11:36:10;8.53;;;5.43;;
9256;SDS011;4665;51.368;6.782;2024-01-30T11:44:47;5.90;;;5.23;;
9256;SDS011;4665;51.368;6.782;2024-01-30T11:47:13;7.67;;;5.27;;
9256;SDS011;4665;51.368;6.782;2024-01-30T11:52:42;8.00;;;5.23;;
9256;SDS011;4665;51.368;6.782;2024-01-30T12:01:32;8.73;;;5.07;;
9256;SDS011;4665;51.368;6.782;2024-01-30T12:03:58;5.93;;;4.63;;
9256;SDS011;4665;51.368;6.782;2024-01-30T12:09:13;5.80;;;4.63;;
9256;SDS011;4665;51.368;6.782;2024-01-30T12:11:56;8.93;;;5.63;;
9256;SDS011;4665;51.368;6.782;2024-01-30T12:14:22;6.63;;;4.87;;
9256;SDS011;4665;51.368;6.782;2024-01-30T12:19:34;7.47;;;5.30;;
9256;SDS011;4665;51.368;6.782;2024-01-30T12:24:37;8.70;;;5.13;;
9256;SDS011;4665;51.368;6.782;2024-01-30T12:29:55;8.77;;;5.30;;
9256;SDS011;4665;51.368;6.782;2024-01-30T12:47:35;6.20;;;4.03;;
9256;SDS011;4665;51.368;6.782;2024-01-30T12:50:01;7.97;;;5.20;;
9256;SDS011;4665;51.368;6.782;2024-01-30T12:55:15;5.07;;;4.60;;
9256;SDS011;4665;51.368;6.782;2024-01-30T12:57:41;5.13;;;4.60;;
9256;SDS011;4665;51.368;6.782;2024-01-30T13:06:02;7.30;;;4.67;;
9256;SDS011;4665;51.368;6.782;2024-01-30T13:08:34;5.87;;;4.83;;
9256;SDS011;4665;51.368;6.782;2024-01-30T13:11:07;7.30;;;4.47;;
9256;SDS011;4665;51.368;6.782;2024-01-30T13:13:32;7.70;;;5.10;;
9256;SDS011;4665;51.368;6.782;2024-01-30T13:16:12;9.43;;;5.37;;
9256;SDS011;4665;51.368;6.782;2024-01-30T13:18:37;8.20;;;4.50;;
9256;SDS011;4665;51.368;6.782;2024-01-30T13:21:18;6.13;;;5.00;;
9256;SDS011;4665;51.368;6.782;2024-01-30T13:23:43;6.97;;;5.23;;
9256;SDS011;4665;51.368;6.782;2024-01-30T13:29:19;10.17;;;4.90;;
9256;SDS011;4665;51.368;6.782;2024-01-30T13:31:44;9.67;;;4.63;;
9256;SDS011;4665;51.368;6.782;2024-01-30T13:37:15;6.47;;;4.43;;
9256;SDS011;4665;51.368;6.782;2024-01-30T13:39:40;10.47;;;5.10;;
9256;SDS011;4665;51.368;6.782;2024-01-30T13:44:35;5.57;;;4.07;;
9256;SDS011;4665;51.368;6.782;2024-01-30T13:47:00;5.60;;;5.00;;
9256;SDS011;4665;51.368;6.782;2024-01-30T13:49:26;6.30;;;5.07;;
9256;SDS011;4665;51.368;6.782;2024-01-30T13:57:57;7.10;;;5.27;;
9256;SDS011;4665;51.368;6.782;2024-01-30T14:09:45;7.97;;;4.70;;
9256;SDS011;4665;51.368;6.782;2024-01-30T14:12:10;6.30;;;4.97;;
9256;SDS011;4665;51.368;6.782;2024-01-30T14:14:36;7.43;;;4.77;;
9256;SDS011;4665;51.368;6.782;2024-01-30T14:17:08;5.20;;;4.70;;
9256;SDS011;4665;51.368;6.782;2024-01-30T14:19:34;7.70;;;4.80;;
9256;SDS011;4665;51.368;6.782;2024-01-30T14:24:29;8.33;;;4.93;;
9256;SDS011;4665;51.368;6.782;2024-01-30T14:30:10;7.37;;;4.67;;
9256;SDS011;4665;51.368;6.782;2024-01-30T14:32:35;6.30;;;5.13;;
9256;SDS011;4665;51.368;6.782;2024-01-30T14:37:31;9.27;;;5.43;;
9256;SDS011;4665;51.368;6.782;2024-01-30T14:40:06;8.40;;;4.93;;
9256;SDS011;4665;51.368;6.782;2024-01-30T14:42:35;7.60;;;5.03;;
9256;SDS011;4665;51.368;6.782;2024-01-30T14:51:02;6.77;;;4.93;;
9256;SDS011;4665;51.368;6.782;2024-01-30T14:56:30;7.13;;;3.87;;
9256;SDS011;4665;51.368;6.782;2024-01-30T14:58:55;4.60;;;3.83;;
9256;SDS011;4665;51.368;6.782;2024-01-30T15:01:21;7.13;;;3.77;;
9256;SDS011;4665;51.368;6.782;2024-01-30T15:03:46;5.63;;;3.80;;
9256;SDS011;4665;51.368;6.782;2024-01-30T15:06:12;7.20;;;4.47;;
9256;SDS011;4665;51.368;6.782;2024-01-30T15:08:37;8.13;;;4.33;;
9256;SDS011;4665;51.368;6.782;2024-01-30T15:11:02;7.60;;;3.87;;
9256;SDS011;4665;51.368;6.782;2024-01-30T15:13:29;5.87;;;4.10;;
9256;SDS011;4665;51.368;6.782;2024-01-30T15:15:54;4.53;;;4.13;;
9256;SDS011;4665;51.368;6.782;2024-01-30T15:18:19;6.10;;;4.27;;
9256;SDS011;4665;51.368;6.782;2024-01-30T15:20:45;9.07;;;4.70;;
9256;SDS011;4665;51.368;6.782;2024-01-30T15:23:10;4.77;;;4.27;;
9256;SDS011;4665;51.368;6.782;2024-01-30T15:25:35;7.33;;;3.67;;
9256;SDS011;4665;51.368;6.782;2024-01-30T15:28:00;5.00;;;3.00;;
9256;SDS011;4665;51.368;6.782;2024-01-30T15:30:25;4.90;;;3.10;;
9256;SDS011;4665;51.368;6.782;2024-01-30T15:32:51;4.50;;;2.70;;
9256;SDS011;4665;51.368;6.782;2024-01-30T15:35:16;4.80;;;2.50;;
9256;SDS011;4665;51.368;6.782;2024-01-30T15:37:41;2.67;;;2.47;;
9256;SDS011;4665;51.368;6.782;2024-01-30T15:40:07;3.33;;;2.27;;
9256;SDS011;4665;51.368;6.782;2024-01-30T15:42:33;2.63;;;2.00;;
9256;SDS011;4665;51.368;6.782;2024-01-30T15:44:58;2.97;;;1.80;;
9256;SDS011;4665;51.368;6.782;2024-01-30T15:47:24;1.93;;;1.73;;
9256;SDS011;4665;51.368;6.782;2024-01-30T15:49:49;2.20;;;1.60;;
9256;SDS011;4665;51.368;6.782;2024-01-30T15:52:14;1.23;;;1.13;;
9256;SDS011;4665;51.368;6.782;2024-01-30T15:54:42;2.90;;;1.53;;
9256;SDS011;4665;51.368;6.782;2024-01-30T15:57:07;1.47;;;1.37;;
9256;SDS011;4665;51.368;6.782;2024-01-30T15:59:32;3.30;;;1.50;;
9256;SDS011;4665;51.368;6.782;2024-01-30T16:01:58;1.60;;;1.50;;
9256;SDS011;4665;51.368;6.782;2024-01-30T16:04:23;1.10;;;1.10;;
9256;SDS011;4665;51.368;6.782;2024-01-30T16:06:50;2.80;;;1.10;;
9256;SDS011;4665;51.368;6.782;2024-01-30T16:09:15;2.87;;;1.33;;
9256;SDS011;4665;51.368;6.782;2024-01-30T16:11:41;2.07;;;1.30;;
9256;SDS011;4665;51.368;6.782;2024-01-30T16:14:06;3.17;;;1.57;;
9256;SDS011;4665;51.368;6.782;2024-01-30T16:16:31;1.43;;;1.33;;
9256;SDS011;4665;51.368;6.782;2024-01-30T16:18:57;1.10;;;0.80;;
9256;SDS011;4665;51.368;6.782;2024-01-30T16:21:22;1.03;;;1.03;;
9256;SDS011;4665;51.368;6.782;2024-01-30T16:23:47;2.10;;;0.83;;
9256;SDS011;4665;51.368;6.782;2024-01-30T16:26:13;0.70;;;0.70;;
9256;SDS011;4665;51.368;6.782;2024-01-30T16:28:38;3.80;;;1.30;;
9256;SDS011;4665;51.368;6.782;2024-01-30T16:31:03;1.67;;;0.60;;
9256;SDS011;4665;51.368;6.782;2024-01-30T16:33:29;3.63;;;1.17;;
9256;SDS011;4665;51.368;6.782;2024-01-30T16:35:54;1.27;;;1.17;;
9256;SDS011;4665;51.368;6.782;2024-01-30T16:38:19;1.60;;;1.07;;
9256;SDS011;4665;51.368;6.782;2024-01-30T16:40:44;2.40;;;1.00;;
9256;SDS011;4665;51.368;6.782;2024-01-30T16:43:11;4.13;;;1.20;;
9256;SDS011;4665;51.368;6.782;2024-01-30T16:45:36;5.23;;;1.17;;
9256;SDS011;4665;51.368;6.782;2024-01-30T16:48:01;2.10;;;0.97;;
9256;SDS011;4665;51.368;6.782;2024-01-30T16:50:27;3.83;;;1.17;;
9256;SDS011;4665;51.368;6.782;2024-01-30T16:52:52;3.27;;;1.13;;
9256;SDS011;4665;51.368;6.782;2024-01-30T16:55:17;2.27;;;1.13;;
9256;SDS011;4665;51.368;6.782;2024-01-30T16:57:43;0.67;;;0.63;;
9256;SDS011;4665;51.368;6.782;2024-01-30T17:00:09;1.17;;;0.80;;
9256;SDS011;4665;51.368;6.782;2024-01-30T17:02:35;1.70;;;0.90;;
9256;SDS011;4665;51.368;6.782;2024-01-30T17:05:00;2.10;;;0.80;;
9256;SDS011;4665;51.368;6.782;2024-01-30T17:07:26;1.17;;;1.07;;
9256;SDS011;4665;51.368;6.782;2024-01-30T17:09:51;1.20;;;1.03;;
9256;SDS011;4665;51.368;6.782;2024-01-30T17:12:18;0.60;;;0.60;;
9256;SDS011;4665;51.368;6.782;2024-01-30T17:14:43;1.23;;;1.00;;
9256;SDS011;4665;51.368;6.782;2024-01-30T17:17:09;1.17;;;1.07;;
9256;SDS011;4665;51.368;6.782;2024-01-30T17:19:35;2.77;;;1.10;;
9256;SDS011;4665;51.368;6.782;2024-01-30T17:22:00;2.73;;;1.80;;
9256;SDS011;4665;51.368;6.782;2024-01-30T17:24:25;3.73;;;1.80;;
9256;SDS011;4665;51.368;6.782;2024-01-30T17:26:51;1.60;;;1.50;;
9256;SDS011;4665;51.368;6.782;2024-01-30T17:29:16;1.80;;;1.70;;
9256;SDS011;4665;51.368;6.782;2024-01-30T17:31:41;1.77;;;1.67;;
9256;SDS011;4665;51.368;6.782;2024-01-30T17:34:09;1.77;;;1.60;;
9256;SDS011;4665;51.368;6.782;2024-01-30T17:36:34;1.80;;;1.70;;
9256;SDS011;4665;51.368;6.782;2024-01-30T17:38:59;2.00;;;1.90;;
9256;SDS011;4665;51.368;6.782;2024-01-30T17:41:25;3.07;;;2.40;;
9256;SDS011;4665;51.368;6.782;2024-01-30T17:43:50;2.13;;;1.93;;
9256;SDS011;4665;51.368;6.782;2024-01-30T17:46:15;3.07;;;2.20;;
9256;SDS011;4665;51.368;6.782;2024-01-30T17:48:40;5.33;;;2.67;;
9256;SDS011;4665;51.368;6.782;2024-01-30T17:51:06;2.50;;;2.00;;
9256;SDS011;4665;51.368;6.782;2024-01-30T17:53:31;1.80;;;1.70;;
9256;SDS011;4665;51.368;6.782;2024-01-30T17:55:56;2.00;;;1.80;;
9256;SDS011;4665;51.368;6.782;2024-01-30T17:58:26;2.30;;;1.90;;
9256;SDS011;4665;51.368;6.782;2024-01-30T18:00:51;2.30;;;1.60;;
9256;SDS011;4665;51.368;6.782;2024-01-30T18:03:16;3.90;;;2.20;;
9256;SDS011;4665;51.368;6.782;2024-01-30T18:05:41;2.27;;;1.87;;
9256;SDS011;4665;51.368;6.782;2024-01-30T18:08:07;2.83;;;1.60;;
9256;SDS011;4665;51.368;6.782;2024-01-30T18:10:33;2.53;;;1.87;;
9256;SDS011;4665;51.368;6.782;2024-01-30T18:13:00;2.23;;;1.80;;
9256;SDS011;4665;51.368;6.782;2024-01-30T18:15:26;2.23;;;1.50;;
9256;SDS011;4665;51.368;6.782;2024-01-30T18:17:51;3.63;;;1.63;;
9256;SDS011;4665;51.368;6.782;2024-01-30T18:20:16;1.90;;;1.73;;
9256;SDS011;4665;51.368;6.782;2024-01-30T18:22:42;3.63;;;1.97;;
9256;SDS011;4665;51.368;6.782;2024-01-30T18:25:09;1.70;;;1.60;;
9256;SDS011;4665;51.368;6.782;2024-01-30T18:27:34;2.90;;;1.90;;
9256;SDS011;4665;51.368;6.782;2024-01-30T18:30:00;2.77;;;1.90;;
9256;SDS011;4665;51.368;6.782;2024-01-30T18:32:25;1.97;;;1.83;;
9256;SDS011;4665;51.368;6.782;2024-01-30T18:34:50;2.60;;;1.50;;
9256;SDS011;4665;51.368;6.782;2024-01-30T18:37:15;2.20;;;1.80;;
9256;SDS011;4665;51.368;6.782;2024-01-30T18:39:41;2.57;;;1.93;;
9256;SDS011;4665;51.368;6.782;2024-01-30T18:42:08;1.93;;;1.80;;
9256;SDS011;4665;51.368;6.782;2024-01-30T18:44:33;1.90;;;1.80;;
9256;SDS011;4665;51.368;6.782;2024-01-30T18:46:58;1.67;;;1.57;;
9256;SDS011;4665;51.368;6.782;2024-01-30T18:49:23;3.93;;;1.60;;
9256;SDS011;4665;51.368;6.782;2024-01-30T18:51:48;1.80;;;1.70;;
9256;SDS011;4665;51.368;6.782;2024-01-30T18:54:16;2.30;;;1.73;;
9256;SDS011;4665;51.368;6.782;2024-01-30T18:56:42;2.63;;;1.90;;
9256;SDS011;4665;51.368;6.782;2024-01-30T18:59:07;1.70;;;1.60;;
9256;SDS011;4665;51.368;6.782;2024-01-30T19:01:32;2.00;;;1.90;;
9256;SDS011;4665;51.368;6.782;2024-01-30T19:03:57;2.00;;;1.83;;
9256;SDS011;4665;51.368;6.782;2024-01-30T19:06:23;2.07;;;1.97;;
9256;SDS011;4665;51.368;6.782;2024-01-30T19:08:48;2.90;;;2.00;;
9256;SDS011;4665;51.368;6.782;2024-01-30T19:11:17;2.33;;;2.07;;
9256;SDS011;4665;51.368;6.782;2024-01-30T19:13:42;3.47;;;2.47;;
9256;SDS011;4665;51.368;6.782;2024-01-30T19:16:07;3.70;;;2.73;;
9256;SDS011;4665;51.368;6.782;2024-01-30T19:18:32;4.10;;;2.70;;
9256;SDS011;4665;51.368;6.782;2024-01-30T19:20:58;3.00;;;2.40;;
9256;SDS011;4665;51.368;6.782;2024-01-30T19:23:23;3.93;;;2.50;;
9256;SDS011;4665;51.368;6.782;2024-01-30T19:25:49;3.10;;;2.40;;
9256;SDS011;4665;51.368;6.782;2024-01-30T19:28:14;3.07;;;2.47;;
9256;SDS011;4665;51.368;6.782;2024-01-30T19:30:39;2.57;;;2.37;;
9256;SDS011;4665;51.368;6.782;2024-01-30T19:33:05;3.30;;;3.00;;
9256;SDS011;4665;51.368;6.782;2024-01-30T19:35:30;3.40;;;3.10;;
9256;SDS011;4665;51.368;6.782;2024-01-30T19:37:55;4.03;;;3.10;;
9256;SDS011;4665;51.368;6.782;2024-01-30T19:40:20;4.63;;;2.97;;
9256;SDS011;4665;51.368;6.782;2024-01-30T19:42:46;4.80;;;3.47;;
9256;SDS011;4665;51.368;6.782;2024-01-30T19:45:14;5.40;;;3.63;;
9256;SDS011;4665;51.368;6.782;2024-01-30T19:47:39;4.53;;;3.47;;
9256;SDS011;4665;51.368;6.782;2024-01-30T19:50:08;5.10;;;3.50;;
9256;SDS011;4665;51.368;6.782;2024-01-30T19:52:33;3.93;;;3.53;;
9256;SDS011;4665;51.368;6.782;2024-01-30T19:54:59;4.03;;;3.50;;
9256;SDS011;4665;51.368;6.782;2024-01-30T19:57:24;5.47;;;3.80;;